LTAU/ASR METAR and TAF weather

Enter ICAO airport designator
Station Type Date Time Source
LTAU METAR 2021/09/20 05:50 UTC NOAA

LTAU 200550Z 00000KT 9999 FEW040 17/14 Q1020 NOSIG


Station Type Date Time Source
LTAU Decoded METAR 2021/09/20 05:50 UTC NOAA

Kayseri / Erkilet, Turkey (LTAU) 38-47N 035-29E 1054M
Sep 20, 2021 - 01:50 AM EDT / 2021.09.20 0550 UTC
Wind: Calm:0
Visibility: greater than 7 mile(s):0
Sky conditions: mostly clear
Temperature: 62 F (17 C)
Dew Point: 57 F (14 C)
Relative Humidity: 82%
Pressure (altimeter): 30.12 in. Hg (1020 hPa)
ob: LTAU 200550Z 00000KT 9999 FEW040 17/14 Q1020 NOSIG
cycle: 6

Station Type Date Time Source
LTAU TAF 2021/09/20 06:03 UTC NOAA

TAF LTAU 200440Z 2006/2106 VRB02KT 9999 SCT040
BECMG 2007/2009 27014KT PROB30
TEMPO 2012/2015 TS FEW027CB SCT035
BECMG 2017/2020 VRB02KT CAVOK

Example: see airport list